Time;durP1;ratioP1;P1;durP2;ratioP2;P2;SDS_P1;SDS_P2;PMS_P1;PMS_P2;Temp;Humidity;BMP_temperature;BMP_pressure;BME280_temperature;BME280_humidity;BME280_pressure;Samples;Min_cycle;Max_cycle;Signal;HPM_P1;HPM_P2
2022/11/14 00:02:22;;;;;;;24.70;12.93;;;;;;;2.15;100.00;98812.94;5009960;28;20022;-64
2022/11/14 00:04:48;;;;;;;23.45;12.73;;;;;;;2.28;100.00;98824.09;5000547;28;20027;-64
2022/11/14 00:07:14;;;;;;;23.52;12.73;;;;;;;2.31;100.00;98821.09;4987029;28;20022;-61
2022/11/14 00:09:41;;;;;;;21.05;12.30;;;;;;;2.40;100.00;98824.69;5008380;28;20026;-64
2022/11/14 00:12:08;;;;;;;21.48;11.32;;;;;;;2.39;100.00;98828.38;5007454;28;20019;-63
2022/11/14 00:14:34;;;;;;;19.98;11.85;;;;;;;2.48;100.00;98837.28;5004777;28;20023;-63
2022/11/14 00:16:59;;;;;;;23.20;11.20;;;;;;;2.55;100.00;98827.69;5007986;28;20036;-63
2022/11/14 00:19:24;;;;;;;20.77;11.65;;;;;;;2.69;100.00;98823.66;5011819;28;20034;-63
2022/11/14 00:21:51;;;;;;;16.55;11.05;;;;;;;2.68;100.00;98830.81;5001001;28;20100;-61
2022/11/14 00:24:17;;;;;;;20.48;10.82;;;;;;;2.74;100.00;98816.00;4988411;28;20426;-61
2022/11/14 00:26:43;;;;;;;20.90;11.18;;;;;;;2.81;100.00;98812.59;4991351;28;20022;-63
2022/11/14 00:29:10;;;;;;;21.98;12.30;;;;;;;2.89;100.00;98817.16;5003976;28;20386;-65
2022/11/14 00:31:36;;;;;;;20.65;11.82;;;;;;;3.04;100.00;98818.28;4990820;28;20026;-63
2022/11/14 00:34:01;;;;;;;14.95;9.93;;;;;;;2.95;100.00;98819.19;5004689;28;20108;-63
2022/11/14 00:36:26;;;;;;;13.77;8.73;;;;;;;2.47;100.00;98814.25;5004037;28;20450;-63
2022/11/14 00:38:56;;;;;;;13.70;8.98;;;;;;;2.50;100.00;98812.13;4990580;28;20030;-64
2022/11/14 00:41:21;;;;;;;;;;;;;;;2.61;100.00;98811.88;4991591;28;20037;-63
2022/11/14 00:43:47;;;;;;;15.00;8.77;;;;;;;2.69;100.00;98815.63;5003457;28;19914;-63
2022/11/14 00:46:12;;;;;;;16.55;9.90;;;;;;;2.77;100.00;98810.38;5001949;28;20077;-63
2022/11/14 00:48:38;;;;;;;18.23;10.95;;;;;;;2.77;100.00;98810.38;5006375;28;20360;-62
2022/11/14 00:51:04;;;;;;;19.67;10.52;;;;;;;3.02;100.00;98806.91;4980526;28;20038;-62
2022/11/14 00:53:29;;;;;;;18.63;10.93;;;;;;;3.11;100.00;98806.97;4987380;28;20022;-62
2022/11/14 00:55:55;;;;;;;20.15;11.32;;;;;;;3.21;100.00;98803.19;5007294;28;20498;-62
2022/11/14 00:58:20;;;;;;;20.42;10.98;;;;;;;3.34;100.00;98804.63;5007986;28;20121;-62
2022/11/14 01:00:46;;;;;;;22.13;11.93;;;;;;;3.42;100.00;98802.00;4992803;28;20030;-62
2022/11/14 01:03:11;;;;;;;15.77;9.73;;;;;;;3.00;100.00;98798.19;5002808;28;20022;-61
2022/11/14 01:05:42;;;;;;;17.27;9.25;;;;;;;2.85;100.00;98792.56;4992747;28;20035;-61
2022/11/14 01:08:08;;;;;;;18.23;10.35;;;;;;;2.83;100.00;98785.72;4981158;28;20057;-62
2022/11/14 01:10:33;;;;;;;17.70;10.23;;;;;;;2.95;100.00;98788.97;5006898;28;20030;-62
2022/11/14 01:12:58;;;;;;;17.73;10.52;;;;;;;3.03;100.00;98781.00;5004935;28;20474;-62
2022/11/14 01:15:26;;;;;;;14.82;9.70;;;;;;;3.06;100.00;98791.38;4988853;28;20015;-62
2022/11/14 01:17:51;;;;;;;19.98;10.75;;;;;;;3.10;100.00;98798.13;4997327;28;20153;-62
2022/11/14 01:20:16;;;;;;;18.52;10.45;;;;;;;3.16;100.00;98793.97;5006799;28;20026;-62
2022/11/14 01:22:42;;;;;;;18.83;10.32;;;;;;;3.16;100.00;98797.47;5004495;28;20034;-62
2022/11/14 01:25:07;;;;;;;16.98;9.82;;;;;;;3.18;100.00;98798.16;4986654;28;20073;-62
2022/11/14 01:27:33;;;;;;;19.25;10.98;;;;;;;3.15;100.00;98789.63;5001262;28;20022;-62
2022/11/14 01:29:58;;;;;;;16.98;10.27;;;;;;;3.14;100.00;98787.94;5007090;28;20037;-62
2022/11/14 01:32:25;;;;;;;16.35;10.73;;;;;;;3.08;100.00;98786.72;5005651;28;20169;-62
2022/11/14 01:34:50;;;;;;;18.90;10.93;;;;;;;3.05;100.00;98781.69;4992023;28;20385;-62
2022/11/14 01:37:15;;;;;;;17.65;10.57;;;;;;;3.03;100.00;98776.50;5002800;28;20040;-62
2022/11/14 01:39:41;;;;;;;17.60;10.77;;;;;;;2.99;100.00;98782.34;5005561;28;20080;-62
2022/11/14 01:42:06;;;;;;;16.50;10.35;;;;;;;3.01;100.00;98777.66;4990663;28;20026;-62
2022/11/14 01:44:45;;;;;;;18.70;10.90;;;;;;;3.01;100.00;98775.84;5000695;28;20034;-62
2022/11/14 01:47:15;;;;;;;18.50;10.88;;;;;;;3.02;100.00;98765.97;5000228;28;20030;-62
2022/11/14 01:49:44;;;;;;;20.73;10.68;;;;;;;3.18;100.00;98757.22;5010477;28;20504;-62
2022/11/14 01:52:14;;;;;;;;;;;;;;;3.23;100.00;98752.25;4982850;28;20545;-62
2022/11/14 01:54:52;;;;;;;20.27;10.55;;;;;;;3.20;100.00;98748.06;5006501;28;19917;-62
2022/11/14 01:57:24;;;;;;;19.75;11.15;;;;;;;3.17;100.00;98748.38;5009351;28;20363;-62
2022/11/14 01:59:53;;;;;;;21.92;11.75;;;;;;;3.13;100.00;98755.03;4991289;28;20034;-62
2022/11/14 02:02:23;;;;;;;;;;;;;;;3.10;100.00;98752.69;4991023;28;20390;-62
2022/11/14 02:05:03;;;;;;;19.52;10.57;;;;;;;3.11;100.00;98749.00;4990612;28;19933;-62
2022/11/14 02:07:33;;;;;;;23.00;11.15;;;;;;;3.16;100.00;98745.84;5004488;28;20030;-62
2022/11/14 02:10:02;;;;;;;20.10;10.88;;;;;;;3.15;100.00;98750.38;5006731;28;20026;-62
2022/11/14 02:12:27;;;;;;;23.15;12.68;;;;;;;3.23;100.00;98747.75;5005552;28;20118;-62
2022/11/14 02:14:56;;;;;;;50.17;21.92;;;;;;;3.29;100.00;98736.41;5009148;28;20441;-61
2022/11/14 02:17:23;;;;;;;52.47;20.67;;;;;;;3.40;100.00;98737.13;4989070;28;20034;-62
2022/11/14 02:19:54;;;;;;;32.53;16.15;;;;;;;3.40;100.00;98731.78;4997182;28;20037;-62
2022/11/14 02:22:20;;;;;;;23.33;12.15;;;;;;;3.38;100.00;98731.97;5004650;28;20474;-61
2022/11/14 02:24:45;;;;;;;23.15;11.93;;;;;;;3.36;100.00;98722.41;5005448;28;20046;-62
2022/11/14 02:27:13;;;;;;;21.35;11.57;;;;;;;3.39;100.00;98712.22;4993133;28;20034;-62
2022/11/14 02:29:38;;;;;;;20.42;11.60;;;;;;;3.45;100.00;98713.41;4988438;28;20484;-62
2022/11/14 02:32:04;;;;;;;21.05;11.70;;;;;;;3.43;100.00;98713.59;5006394;28;20034;-62
2022/11/14 02:34:29;;;;;;;21.38;11.70;;;;;;;3.48;100.00;98719.31;5007658;28;20021;-62
2022/11/14 02:36:56;;;;;;;20.45;11.45;;;;;;;3.49;100.00;98720.97;5009814;28;20548;-62
2022/11/14 02:39:22;;;;;;;19.67;11.15;;;;;;;3.50;100.00;98727.16;4989424;28;20038;-62
2022/11/14 02:41:49;;;;;;;21.13;11.77;;;;;;;3.51;100.00;98718.97;5005118;28;20053;-62
2022/11/14 02:44:14;;;;;;;21.77;11.27;;;;;;;3.54;100.00;98719.63;5009824;28;20041;-62
2022/11/14 02:46:40;;;;;;;20.98;11.15;;;;;;;3.50;100.00;98713.78;5009694;28;20390;-62
2022/11/14 02:49:05;;;;;;;23.58;11.77;;;;;;;3.54;100.00;98708.94;5008928;28;20030;-61
2022/11/14 02:51:31;;;;;;;22.55;11.38;;;;;;;3.57;100.00;98705.97;5007336;28;20030;-62
2022/11/14 02:53:56;;;;;;;24.83;11.98;;;;;;;3.58;100.00;98699.59;5007616;28;20402;-62
2022/11/14 02:56:22;;;;;;;22.75;12.70;;;;;;;3.62;100.00;98706.31;5011488;28;20099;-62
2022/11/14 02:58:47;;;;;;;21.63;12.27;;;;;;;3.53;100.00;98710.78;5007241;28;20037;-62
2022/11/14 03:01:12;;;;;;;24.20;12.80;;;;;;;3.49;100.00;98715.63;4988962;28;20026;-62
2022/11/14 03:03:38;;;;;;;23.85;12.32;;;;;;;3.52;100.00;98727.84;4992841;28;20031;-62
2022/11/14 03:06:04;;;;;;;23.63;12.65;;;;;;;3.44;100.00;98727.81;5006389;28;20093;-62
2022/11/14 03:08:29;;;;;;;24.58;12.60;;;;;;;3.45;100.00;98732.13;4993626;28;20027;-62
2022/11/14 03:10:55;;;;;;;19.98;11.88;;;;;;;3.36;100.00;98731.28;5003236;28;20023;-62
2022/11/14 03:13:21;;;;;;;26.17;13.57;;;;;;;3.23;100.00;98736.22;5003937;28;20041;-62
2022/11/14 03:15:46;;;;;;;29.67;13.77;;;;;;;3.12;100.00;98729.31;5006805;28;20528;-62
2022/11/14 03:18:12;;;;;;;29.25;14.32;;;;;;;3.08;100.00;98726.09;4992897;28;20022;-62
2022/11/14 03:20:38;;;;;;;25.88;13.50;;;;;;;3.03;100.00;98722.22;5008179;28;21219;-62
2022/11/14 03:23:03;;;;;;;28.38;15.85;;;;;;;3.03;100.00;98715.03;5006821;28;20149;-62
2022/11/14 03:25:29;;;;;;;30.13;15.05;;;;;;;2.94;100.00;98701.78;4986138;28;20434;-62
2022/11/14 03:27:54;;;;;;;31.50;14.70;;;;;;;2.92;100.00;98696.59;4991967;28;20034;-61
2022/11/14 03:30:20;;;;;;;31.58;15.43;;;;;;;2.88;100.00;98700.56;4992187;28;20116;-62
2022/11/14 03:32:45;;;;;;;32.20;15.02;;;;;;;2.68;100.00;98696.44;5009165;28;20486;-62
2022/11/14 03:35:10;;;;;;;31.15;14.82;;;;;;;2.58;100.00;98712.53;5007701;28;20076;-62
2022/11/14 03:37:36;;;;;;;30.23;14.45;;;;;;;2.52;100.00;98706.00;5011015;28;20061;-62
2022/11/14 03:40:02;;;;;;;32.15;15.43;;;;;;;2.54;100.00;98698.69;4989451;28;20045;-62
2022/11/14 03:45:05;;;;;;;35.00;15.70;;;;;;;2.17;100.00;98681.00;4968395;28;20460;-76
2022/11/14 03:47:30;;;;;;;32.80;15.52;;;;;;;2.10;100.00;98665.75;4972798;28;20031;-75
2022/11/14 03:49:55;;;;;;;33.63;16.15;;;;;;;2.08;100.00;98655.22;4944150;29;20487;-76
2022/11/14 03:52:21;;;;;;;40.40;18.77;;;;;;;2.01;100.00;98656.00;4970550;28;20030;-75
2022/11/14 03:54:46;;;;;;;37.45;18.30;;;;;;;1.95;100.00;98652.94;4955252;28;20528;-75
2022/11/14 03:57:11;;;;;;;36.08;16.80;;;;;;;2.03;100.00;98667.34;4954381;28;20026;-76
2022/11/14 03:59:36;;;;;;;32.70;16.70;;;;;;;2.00;100.00;98673.00;4936153;29;20034;-75
2022/11/14 04:02:02;;;;;;;36.10;16.27;;;;;;;2.04;100.00;98669.84;4956756;28;20035;-76
2022/11/14 04:04:27;;;;;;;42.53;16.52;;;;;;;2.05;100.00;98676.06;4939417;29;20078;-75
2022/11/14 04:06:53;;;;;;;30.30;15.80;;;;;;;2.10;100.00;98695.94;4943573;29;20043;-75
2022/11/14 04:09:18;;;;;;;37.72;15.70;;;;;;;1.95;100.00;98692.97;4937937;29;20031;-75
2022/11/14 04:11:43;;;;;;;34.53;15.63;;;;;;;1.88;100.00;98697.22;4937840;29;20063;-75
2022/11/14 04:14:09;;;;;;;34.17;15.95;;;;;;;1.84;100.00;98706.53;4938575;29;20027;-75
2022/11/14 04:16:34;;;;;;;34.20;16.45;;;;;;;1.81;100.00;98708.63;4954524;28;20027;-75
2022/11/14 04:18:59;;;;;;;35.13;16.55;;;;;;;1.67;100.00;98715.31;4938073;29;20035;-75
2022/11/14 04:21:25;;;;;;;37.15;16.20;;;;;;;1.64;100.00;98727.13;4935444;29;20090;-75
2022/11/14 04:23:50;;;;;;;42.40;17.30;;;;;;;1.52;100.00;98715.81;4938599;29;20050;-75
2022/11/14 04:26:15;;;;;;;39.90;17.60;;;;;;;1.30;100.00;98697.53;4938953;29;20035;-75
2022/11/14 04:28:57;;;;;;;41.28;17.75;;;;;;;1.26;100.00;98690.84;4957972;28;20040;-81
2022/11/14 04:31:22;;;;;;;46.10;18.73;;;;;;;1.19;100.00;98687.06;4945216;29;20030;-79
2022/11/14 04:33:48;;;;;;;48.03;19.63;;;;;;;1.29;100.00;98709.19;4949709;29;20078;-80
2022/11/14 04:36:13;;;;;;;45.28;18.70;;;;;;;1.16;100.00;98695.38;4944446;29;20023;-81
2022/11/14 04:38:41;;;;;;;43.97;18.38;;;;;;;0.80;100.00;98639.25;4953618;28;20031;-81
2022/11/14 04:41:07;;;;;;;42.57;16.70;;;;;;;1.04;100.00;98668.88;4948132;29;20031;-79
2022/11/14 04:43:35;;;;;;;49.30;18.85;;;;;;;1.05;100.00;98627.13;4950244;28;20062;-82
2022/11/14 04:46:01;;;;;;;47.15;19.00;;;;;;;1.53;100.00;98696.16;4931618;28;20023;-80
2022/11/14 04:48:37;;;;;;;47.70;17.38;;;;;;;1.41;100.00;98676.00;4971790;28;20031;-80
2022/11/14 04:51:02;;;;;;;41.30;17.27;;;;;;;1.38;100.00;98678.16;4969778;28;20106;-81
2022/11/14 04:53:28;;;;;;;49.70;17.30;;;;;;;1.18;100.00;98642.75;4956155;28;20027;-80
2022/11/14 04:56:28;;;;;;;49.10;19.10;;;;;;;1.47;100.00;98682.59;4957132;28;20042;-84
2022/11/14 05:03:10;;;;;;;41.00;16.95;;;;;;;1.36;100.00;98664.97;4963482;28;20046;-81
2022/11/14 05:12:14;;;;;;;45.05;15.40;;;;;;;1.22;100.00;98642.31;4854559;29;20082;-79
2022/11/14 05:14:39;;;;;;;46.67;17.10;;;;;;;1.31;100.00;98648.59;4841897;29;20026;-79
2022/11/14 05:17:05;;;;;;;42.03;15.32;;;;;;;1.52;100.00;98653.66;4887275;29;20047;-78
2022/11/14 05:19:30;;;;;;;43.53;16.77;;;;;;;1.60;100.00;98664.41;4953990;28;20031;-77
2022/11/14 05:21:55;;;;;;;45.22;17.88;;;;;;;1.60;100.00;98663.56;4952385;28;20501;-80
2022/11/14 05:24:23;;;;;;;45.25;17.75;;;;;;;1.57;100.00;98648.69;4950774;28;20382;-81
2022/11/14 05:30:47;;;;;;;40.47;16.73;;;;;;;1.57;100.00;98648.69;4979766;28;20054;-82
2022/11/14 05:33:12;;;;;;;36.00;15.13;;;;;;;1.40;100.00;98647.69;4935226;29;20127;-79
2022/11/14 05:35:38;;;;;;;37.65;15.50;;;;;;;1.29;100.00;98647.91;4942547;28;20047;-77
2022/11/14 05:38:03;;;;;;;39.13;14.98;;;;;;;1.20;100.00;98643.44;4938259;29;21480;-78
2022/11/14 05:40:28;;;;;;;36.22;14.77;;;;;;;1.29;100.00;98653.22;4942563;28;20035;-77
2022/11/14 05:42:55;;;;;;;35.25;13.70;;;;;;;1.27;100.00;98641.88;4940376;28;20019;-77
2022/11/14 05:45:21;;;;;;;35.92;14.73;;;;;;;1.15;100.00;98625.22;4936264;29;20031;-77
2022/11/14 05:47:46;;;;;;;33.80;15.18;;;;;;;1.13;100.00;98623.69;4953784;28;20082;-78
2022/11/14 05:50:11;;;;;;;37.08;15.38;;;;;;;1.21;100.00;98635.31;4950819;28;20046;-79
2022/11/14 05:52:37;;;;;;;36.78;16.63;;;;;;;1.18;100.00;98626.75;4940461;28;20536;-77
2022/11/14 05:55:02;;;;;;;34.83;15.55;;;;;;;1.33;100.00;98659.94;4937988;29;20118;-73
2022/11/14 05:57:29;;;;;;;40.97;15.88;;;;;;;1.29;100.00;98661.22;4935835;29;20497;-73
2022/11/14 05:59:55;;;;;;;36.22;14.80;;;;;;;1.07;100.00;98634.00;4936912;29;20048;-74
2022/11/14 06:02:20;;;;;;;34.63;15.00;;;;;;;1.18;100.00;98651.59;4956111;29;20042;-74
2022/11/14 06:04:46;;;;;;;35.72;14.15;;;;;;;1.06;100.00;98661.59;4968546;28;20035;-74
2022/11/14 06:07:11;;;;;;;28.33;13.50;;;;;;;1.06;100.00;98668.75;4977209;28;20031;-74
2022/11/14 06:09:37;;;;;;;35.80;14.38;;;;;;;1.04;100.00;98652.91;4957226;28;20031;-73
2022/11/14 06:12:05;;;;;;;34.35;14.07;;;;;;;0.96;100.00;98631.50;4956617;28;20397;-73
2022/11/14 06:14:30;;;;;;;34.90;15.00;;;;;;;1.06;100.00;98642.94;4943068;29;20370;-73
2022/11/14 06:16:55;;;;;;;38.78;14.70;;;;;;;1.09;100.00;98645.31;4943425;29;20087;-74
2022/11/14 06:19:21;;;;;;;35.83;13.60;;;;;;;1.01;100.00;98615.91;4956627;28;20114;-74
2022/11/14 06:21:46;;;;;;;40.33;15.25;;;;;;;1.14;100.00;98646.72;4953916;29;20112;-74
2022/11/14 06:24:11;;;;;;;39.00;16.90;;;;;;;1.18;100.00;98661.41;4951189;28;20031;-74
2022/11/14 06:26:37;;;;;;;37.55;15.85;;;;;;;1.12;100.00;98641.50;4939551;29;20509;-72
2022/11/14 06:29:02;;;;;;;35.55;15.18;;;;;;;1.32;100.00;98658.25;4954741;28;20023;-74
2022/11/14 06:31:27;;;;;;;32.75;14.65;;;;;;;1.32;100.00;98652.94;4954209;28;20465;-76
2022/11/14 06:33:53;;;;;;;28.23;13.32;;;;;;;1.43;100.00;98655.38;4956144;28;20058;-77
2022/11/14 06:36:18;;;;;;;29.52;13.98;;;;;;;1.30;100.00;98620.25;4943416;29;20026;-76
2022/11/14 06:38:44;;;;;;;31.80;14.93;;;;;;;1.40;100.00;98625.53;4942796;29;20031;-76
2022/11/14 06:41:11;;;;;;;30.00;14.35;;;;;;;1.64;100.00;98640.94;4941567;29;20031;-75
2022/11/14 06:43:43;;;;;;;32.20;14.63;;;;;;;1.65;100.00;98643.47;4956445;28;20485;-74
2022/11/14 06:46:11;;;;;;;32.88;12.93;;;;;;;1.78;100.00;98653.75;4950873;28;20035;-75
2022/11/14 06:48:37;;;;;;;28.67;12.95;;;;;;;1.88;100.00;98659.03;4942855;28;20031;-75
2022/11/14 06:51:03;;;;;;;32.53;13.55;;;;;;;1.87;100.00;98636.03;4942386;28;20023;-75
2022/11/14 06:53:31;;;;;;;31.33;13.18;;;;;;;2.01;100.00;98661.31;4948666;29;20037;-74
2022/11/14 06:56:14;;;;;;;32.92;15.00;;;;;;;2.00;100.00;98662.31;4942847;29;20035;-75
2022/11/14 06:58:42;;;;;;;28.80;15.38;;;;;;;2.13;100.00;98668.94;4954845;29;20103;-72
2022/11/14 07:01:10;;;;;;;28.40;14.38;;;;;;;2.27;100.00;98675.56;4938246;28;20031;-77
2022/11/14 07:03:35;;;;;;;30.75;14.95;;;;;;;2.46;100.00;98657.69;4946486;29;20031;-71
2022/11/14 07:06:02;;;;;;;24.95;12.75;;;;;;;2.79;100.00;98654.25;4956595;29;20037;-76
2022/11/14 07:08:28;;;;;;;26.00;12.05;;;;;;;3.06;100.00;98663.09;4959280;28;20023;-76
2022/11/14 07:10:53;;;;;;;21.88;11.07;;;;;;;3.00;100.00;98637.00;4937875;29;22280;-76
2022/11/14 07:13:18;;;;;;;27.50;11.20;;;;;;;2.87;100.00;98628.59;4957703;28;20039;-76
2022/11/14 07:15:51;;;;;;;25.50;11.73;;;;;;;2.78;100.00;98625.06;4941157;29;20385;-77
2022/11/14 07:18:16;;;;;;;24.58;11.07;;;;;;;2.71;100.00;98627.50;4934350;29;20031;-78
2022/11/14 07:20:42;;;;;;;25.75;12.25;;;;;;;2.57;100.00;98622.75;4938336;28;20046;-76
2022/11/14 07:23:07;;;;;;;25.27;11.70;;;;;;;2.61;100.00;98638.28;4954596;28;20070;-74
2022/11/14 07:25:32;;;;;;;24.63;11.52;;;;;;;2.52;100.00;98627.72;4955090;29;20417;-72
2022/11/14 07:27:58;;;;;;;30.80;12.93;;;;;;;2.63;100.00;98655.00;4939572;29;20158;-73
2022/11/14 07:30:23;;;;;;;30.52;12.73;;;;;;;2.59;100.00;98653.66;4948404;28;20076;-76
2022/11/14 07:32:58;;;;;;;29.23;12.55;;;;;;;2.74;100.00;98663.75;4951272;28;20035;-73
2022/11/14 07:35:24;;;;;;;24.83;11.30;;;;;;;2.74;100.00;98647.72;4940412;28;20023;-74
2022/11/14 07:37:50;;;;;;;24.42;11.48;;;;;;;2.87;100.00;98649.97;4957767;28;20058;-77
2022/11/14 07:40:16;;;;;;;22.45;10.45;;;;;;;3.04;100.00;98649.91;4949976;28;20028;-76
2022/11/14 07:42:41;;;;;;;24.00;10.77;;;;;;;3.01;100.00;98641.34;4944140;29;20038;-76
2022/11/14 07:45:08;;;;;;;20.70;11.00;;;;;;;3.01;100.00;98641.34;4952672;28;20122;-76
2022/11/14 07:47:33;;;;;;;23.08;11.02;;;;;;;3.08;100.00;98648.56;4954079;29;20027;-74
2022/11/14 07:49:58;;;;;;;24.83;11.45;;;;;;;3.11;100.00;98636.72;4937641;29;20027;-78
2022/11/14 07:52:23;;;;;;;23.85;10.85;;;;;;;3.26;100.00;98653.00;4966355;28;20516;-73
2022/11/14 07:54:49;;;;;;;31.17;11.07;;;;;;;3.55;100.00;98657.97;4930412;29;20126;-73
2022/11/14 07:57:14;;;;;;;24.65;10.23;;;;;;;3.65;100.00;98655.16;4943283;29;20473;-77
2022/11/14 07:59:40;;;;;;;24.90;11.02;;;;;;;3.80;100.00;98650.84;4936217;29;20081;-76
2022/11/14 08:02:05;;;;;;;21.17;10.18;;;;;;;4.15;100.00;98670.31;4940229;29;20063;-74
2022/11/14 08:04:30;;;;;;;18.00;9.88;;;;;;;4.07;100.00;98657.75;4934868;29;20522;-78
2022/11/14 08:06:56;;;;;;;20.15;9.98;;;;;;;4.04;100.00;98650.06;4961495;28;20497;-74
2022/11/14 08:09:22;;;;;;;22.10;10.05;;;;;;;3.95;100.00;98643.84;4955509;28;20031;-77
2022/11/14 08:11:47;;;;;;;22.10;10.15;;;;;;;4.06;100.00;98664.13;4956793;28;20531;-76
2022/11/14 08:14:14;;;;;;;20.98;11.20;;;;;;;4.20;100.00;98670.66;4942315;29;20469;-77
2022/11/14 08:16:39;;;;;;;21.10;10.77;;;;;;;4.16;100.00;98643.34;4937929;29;20027;-78
2022/11/14 08:19:05;;;;;;;19.10;10.10;;;;;;;4.52;100.00;98651.06;4945622;29;20167;-73
2022/11/14 08:21:30;;;;;;;23.58;12.00;;;;;;;4.61;100.00;98631.31;4952014;28;20074;-76
2022/11/14 08:23:56;;;;;;;24.67;11.43;;;;;;;5.11;100.00;98664.22;4955148;28;20034;-86
2022/11/14 08:26:22;;;;;;;23.10;11.63;;;;;;;5.08;100.00;98628.84;4932764;28;20031;-82
2022/11/14 08:28:50;;;;;;;23.00;10.82;;;;;;;5.34;100.00;98633.94;4958789;28;20039;-79
2022/11/14 08:31:16;;;;;;;22.00;11.77;;;;;;;5.39;100.00;98639.63;4959851;28;20058;-82
2022/11/14 08:33:41;;;;;;;31.02;12.77;;;;;;;5.37;100.00;98636.28;4959620;28;20042;-80
2022/11/14 08:36:07;;;;;;;20.80;10.90;;;;;;;5.42;100.00;98658.91;4962111;28;20113;-84
2022/11/14 08:38:33;;;;;;;18.08;9.40;;;;;;;5.57;100.00;98675.09;4941127;29;20027;-85
2022/11/14 08:41:02;;;;;;;17.05;8.98;;;;;;;5.62;100.00;98670.03;4938248;28;20027;-78
2022/11/14 08:43:29;;;;;;;14.98;8.73;;;;;;;5.32;100.00;98644.88;4941492;29;20126;-75
2022/11/14 08:45:59;;;;;;;18.30;9.00;;;;;;;5.22;100.00;98653.13;4936425;29;20151;-74
2022/11/14 08:48:24;;;;;;;12.57;7.63;;;;;;;5.40;100.00;98671.66;4953873;29;20027;-75
2022/11/14 08:50:50;;;;;;;15.52;7.07;;;;;;;5.41;100.00;98657.22;4950031;28;20042;-78
2022/11/14 08:53:15;;;;;;;14.35;7.78;;;;;;;5.59;100.00;98680.31;4938043;29;20066;-81
2022/11/14 08:55:45;;;;;;;14.10;7.75;;;;;;;5.81;100.00;98684.06;4940528;28;20039;-82
2022/11/14 08:58:10;;;;;;;14.45;8.35;;;;;;;5.79;100.00;98648.47;4941451;29;20037;-80
2022/11/14 09:00:35;;;;;;;16.90;7.95;;;;;;;6.04;100.00;98659.97;4942080;29;20441;-81
2022/11/14 09:03:06;;;;;;;16.42;9.23;;;;;;;6.26;100.00;98663.66;4941775;29;20497;-81
2022/11/14 09:05:33;;;;;;;17.55;8.77;;;;;;;6.36;100.00;98673.13;4956114;28;20556;-80
2022/11/14 09:07:58;;;;;;;19.50;8.60;;;;;;;6.43;100.00;98664.38;4956184;28;20507;-80
2022/11/14 09:10:24;;;;;;;13.75;6.70;;;;;;;6.51;100.00;98659.75;4950286;29;20035;-77
2022/11/14 09:12:54;;;;;;;13.73;6.97;;;;;;;6.62;100.00;98639.69;4939071;29;20037;-82
2022/11/14 09:15:20;;;;;;;10.95;5.55;;;;;;;6.53;100.00;98624.66;4939753;29;20031;-83
2022/11/14 09:17:46;;;;;;;9.77;5.22;;;;;;;6.49;100.00;98593.78;4945533;29;20059;-83
2022/11/14 09:20:12;;;;;;;9.90;4.70;;;;;;;6.70;100.00;98628.84;4948225;29;20023;-84
2022/11/14 09:22:37;;;;;;;8.23;4.25;;;;;;;6.42;100.00;98593.69;4961818;28;20024;-82
2022/11/14 09:25:03;;;;;;;11.20;6.22;;;;;;;6.72;100.00;98685.13;4944920;28;20032;-79
2022/11/14 09:27:28;;;;;;;22.73;5.80;;;;;;;6.36;100.00;98675.00;4939401;29;20038;-80
2022/11/14 09:29:53;;;;;;;12.35;5.88;;;;;;;6.38;100.00;98683.72;4938922;29;20031;-80
2022/11/14 09:32:19;;;;;;;10.80;5.53;;;;;;;6.34;100.00;98685.94;4953688;29;20046;-77
2022/11/14 09:34:46;;;;;;;10.50;4.93;;;;;;;6.44;100.00;98706.34;4953687;28;20058;-80
2022/11/14 09:37:12;;;;;;;13.55;6.28;;;;;;;6.30;100.00;98694.53;4937830;29;20481;-75
2022/11/14 09:39:39;;;;;;;10.48;5.97;;;;;;;6.21;100.00;98684.84;4928069;29;20062;-75
2022/11/14 09:42:39;;;;;;;11.98;6.10;;;;;;;6.40;100.00;98730.06;4950704;28;20470;-71
2022/11/14 09:45:11;;;;;;;13.13;5.60;;;;;;;6.32;100.00;98716.69;4947642;28;20039;-75
2022/11/14 09:47:43;;;;;;;12.05;6.03;;;;;;;6.26;100.00;98715.56;4929126;29;20028;-76
2022/11/14 09:50:29;;;;;;;11.90;6.28;;;;;;;6.27;100.00;98725.28;4949750;28;20030;-76
2022/11/14 09:52:56;;;;;;;12.23;6.85;;;;;;;6.19;100.00;98705.69;4949440;28;20029;-77
2022/11/14 09:55:27;;;;;;;11.35;6.20;;;;;;;6.26;100.00;98720.94;4949726;28;20379;-72
2022/11/14 09:57:53;;;;;;;16.80;6.78;;;;;;;6.34;100.00;98714.63;4941601;28;20031;-71
2022/11/14 10:00:22;;;;;;;16.17;7.20;;;;;;;6.43;100.00;98715.44;4947845;28;20035;-74
2022/11/14 10:03:17;;;;;;;14.95;5.78;;;;;;;6.65;100.00;98721.81;4947291;28;20028;-74
2022/11/14 10:06:14;;;;;;;12.65;5.70;;;;;;;6.78;100.00;98708.59;4951752;28;20063;-75
2022/11/14 10:09:10;;;;;;;9.52;5.28;;;;;;;7.10;100.00;98709.31;4950113;28;20035;-82
2022/11/14 10:11:49;;;;;;;9.00;4.53;;;;;;;7.02;100.00;98653.72;4940413;29;20027;-86
2022/11/14 10:14:48;;;;;;;7.07;3.60;;;;;;;7.29;100.00;98643.38;4941790;28;20032;-78
2022/11/14 10:17:35;;;;;;;5.10;2.92;;;;;;;7.49;100.00;98652.53;4956864;28;20039;-74
2022/11/14 10:20:17;;;;;;;4.82;2.95;;;;;;;7.61;100.00;98656.41;4958424;28;20031;-74
2022/11/14 10:22:56;;;;;;;5.22;2.75;;;;;;;7.80;100.00;98662.22;4956321;28;20039;-73
2022/11/14 10:25:50;;;;;;;6.05;3.30;;;;;;;7.72;100.00;98635.41;4955736;28;20485;-73
2022/11/14 10:28:34;;;;;;;6.40;3.47;;;;;;;7.84;100.00;98658.16;4952914;28;20042;-73
2022/11/14 10:31:22;;;;;;;7.38;3.65;;;;;;;8.00;100.00;98644.44;4933993;28;20375;-73
2022/11/14 10:34:12;;;;;;;5.40;2.90;;;;;;;7.99;100.00;98618.53;4948739;28;20027;-74
2022/11/14 10:36:52;;;;;;;4.97;2.35;;;;;;;8.11;100.00;98608.91;4915347;28;20039;-73
2022/11/14 10:39:31;;;;;;;8.95;2.92;;;;;;;8.23;100.00;98624.59;4923702;28;20039;-73
2022/11/14 10:42:31;;;;;;;8.32;3.33;;;;;;;8.10;100.00;98604.56;4954059;28;20098;-87
2022/11/14 10:45:03;;;;;;;6.22;3.10;;;;;;;8.32;100.00;98639.59;4956042;28;20520;-83
2022/11/14 10:47:39;;;;;;;7.60;2.72;;;;;;;8.44;100.00;98635.38;4947415;29;20035;-82
2022/11/14 10:50:16;;;;;;;6.75;3.30;;;;;;;8.22;100.00;98579.78;4961843;28;20042;-81
2022/11/14 10:52:44;;;;;;;6.18;3.00;;;;;;;8.63;100.00;98603.38;4954585;28;20148;-76
2022/11/14 10:55:15;;;;;;;4.90;2.15;;;;;;;8.91;100.00;98627.66;4956031;28;20028;-78
2022/11/14 10:57:42;;;;;;;4.45;2.80;;;;;;;9.02;100.00;98629.81;4956250;28;20032;-83
2022/11/14 11:00:17;;;;;;;4.80;2.40;;;;;;;8.65;100.00;98564.41;4954950;29;20031;-84
2022/11/14 11:02:56;;;;;;;4.35;2.53;;;;;;;9.09;100.00;98600.16;4934063;29;20067;-81
2022/11/14 11:05:24;;;;;;;8.45;2.85;;;;;;;9.24;100.00;98618.94;4957745;28;20020;-85
2022/11/14 11:13:39;;;;;;;4.70;2.55;;;;;;;9.29;100.00;98611.06;4960773;29;20129;-79
2022/11/14 11:16:10;;;;;;;5.03;3.10;;;;;;;9.07;100.00;98594.13;4967195;28;20020;-73
2022/11/14 11:18:35;;;;;;;4.60;2.83;;;;;;;9.10;100.00;98610.75;4952711;28;20499;-78
2022/11/14 11:21:11;;;;;;;5.20;2.90;;;;;;;9.02;100.00;98610.09;4955777;28;20028;-82
2022/11/14 11:23:52;;;;;;;4.93;2.60;;;;;;;9.14;100.00;98617.44;4951699;29;20332;-82
2022/11/14 11:26:19;;;;;;;4.03;2.20;;;;;;;9.39;100.00;98598.88;4936631;29;20027;-77
2022/11/14 11:29:01;;;;;;;6.22;2.10;;;;;;;9.74;100.00;98590.66;4937538;29;20031;-73
2022/11/14 11:31:26;;;;;;;4.53;1.75;;;;;;;10.20;100.00;98571.03;4954603;28;20023;-74
2022/11/14 11:33:51;;;;;;;6.00;2.10;;;;;;;10.63;100.00;98558.97;4953679;28;20023;-77
2022/11/14 11:36:19;;;;;;;3.40;2.03;;;;;;;10.82;100.00;98565.41;4947629;29;20023;-77
2022/11/14 11:38:46;;;;;;;3.78;2.03;;;;;;;10.90;100.00;98557.09;4970835;28;20031;-76
2022/11/14 11:41:27;;;;;;;2.30;1.42;;;;;;;11.17;100.00;98552.44;4957694;28;20038;-73
2022/11/14 11:44:01;;;;;;;3.67;1.90;;;;;;;11.67;100.00;98549.91;4957529;28;20177;-74
2022/11/14 11:46:53;;;;;;;2.88;1.55;;;;;;;14.02;100.00;98559.16;4947581;29;20126;-74
2022/11/14 11:49:39;;;;;;;4.72;1.30;;;;;;;17.24;100.00;98532.06;4949716;28;20482;-73
2022/11/14 11:52:14;;;;;;;1.85;0.93;;;;;;;18.82;86.41;98546.56;4937421;28;20035;-72